sensor_id;sensor_type;location;lat;lon;timestamp;pressure;altitude;pressure_sealevel;temperature;humidity
50356;BME280;36264;51.296;-0.602;2023-03-01T00:02:19;103001.06;;;8.00;100.00
50356;BME280;36264;51.296;-0.602;2023-03-01T00:04:44;102999.31;;;7.98;100.00
50356;BME280;36264;51.296;-0.602;2023-03-01T00:07:10;103000.16;;;7.97;100.00
50356;BME280;36264;51.296;-0.602;2023-03-01T00:09:36;103005.28;;;7.96;100.00
50356;BME280;36264;51.296;-0.602;2023-03-01T00:12:02;103013.88;;;7.92;100.00
50356;BME280;36264;51.296;-0.602;2023-03-01T00:14:27;103012.00;;;7.85;100.00
50356;BME280;36264;51.296;-0.602;2023-03-01T00:16:53;103007.72;;;7.84;100.00
50356;BME280;36264;51.296;-0.602;2023-03-01T00:19:19;103012.84;;;7.82;100.00
50356;BME280;36264;51.296;-0.602;2023-03-01T00:21:45;103008.50;;;7.79;100.00
50356;BME280;36264;51.296;-0.602;2023-03-01T00:24:10;103009.38;;;7.82;100.00
50356;BME280;36264;51.296;-0.602;2023-03-01T00:26:36;103007.69;;;7.82;100.00
50356;BME280;36264;51.296;-0.602;2023-03-01T00:29:02;103012.88;;;7.84;100.00
50356;BME280;36264;51.296;-0.602;2023-03-01T00:31:29;103018.03;;;7.82;100.00
50356;BME280;36264;51.296;-0.602;2023-03-01T00:33:57;103014.50;;;7.78;100.00
50356;BME280;36264;51.296;-0.602;2023-03-01T00:36:27;103020.47;;;7.73;100.00
50356;BME280;36264;51.296;-0.602;2023-03-01T00:38:53;103015.22;;;7.70;100.00
50356;BME280;36264;51.296;-0.602;2023-03-01T00:41:19;103017.81;;;7.70;100.00
50356;BME280;36264;51.296;-0.602;2023-03-01T00:43:45;103015.19;;;7.68;100.00
50356;BME280;36264;51.296;-0.602;2023-03-01T00:46:13;103010.06;;;7.70;100.00
50356;BME280;36264;51.296;-0.602;2023-03-01T00:48:39;103001.47;;;7.71;100.00
50356;BME280;36264;51.296;-0.602;2023-03-01T00:53:31;102998.88;;;7.71;100.00
50356;BME280;36264;51.296;-0.602;2023-03-01T00:55:57;103000.50;;;7.67;100.00
50356;BME280;36264;51.296;-0.602;2023-03-01T00:58:23;102995.38;;;7.69;100.00
50356;BME280;36264;51.296;-0.602;2023-03-01T01:00:48;103004.84;;;7.68;100.00
50356;BME280;36264;51.296;-0.602;2023-03-01T01:03:14;103002.19;;;7.64;100.00
50356;BME280;36264;51.296;-0.602;2023-03-01T01:05:39;102996.13;;;7.61;100.00
50356;BME280;36264;51.296;-0.602;2023-03-01T01:08:04;103003.84;;;7.60;100.00
50356;BME280;36264;51.296;-0.602;2023-03-01T01:10:30;103002.09;;;7.59;100.00
50356;BME280;36264;51.296;-0.602;2023-03-01T01:12:58;102999.53;;;7.60;100.00
50356;BME280;36264;51.296;-0.602;2023-03-01T01:15:23;103000.34;;;7.58;100.00
50356;BME280;36264;51.296;-0.602;2023-03-01T01:17:48;103001.22;;;7.57;100.00
50356;BME280;36264;51.296;-0.602;2023-03-01T01:20:14;103002.09;;;7.59;100.00
50356;BME280;36264;51.296;-0.602;2023-03-01T01:22:39;102992.59;;;7.58;100.00
50356;BME280;36264;51.296;-0.602;2023-03-01T01:25:05;102990.00;;;7.58;100.00
50356;BME280;36264;51.296;-0.602;2023-03-01T01:27:30;102993.44;;;7.55;100.00
50356;BME280;36264;51.296;-0.602;2023-03-01T01:29:56;102988.19;;;7.52;100.00
50356;BME280;36264;51.296;-0.602;2023-03-01T01:32:21;102989.06;;;7.53;100.00
50356;BME280;36264;51.296;-0.602;2023-03-01T01:34:46;102990.84;;;7.55;100.00
50356;BME280;36264;51.296;-0.602;2023-03-01T01:37:12;102991.66;;;7.53;100.00
50356;BME280;36264;51.296;-0.602;2023-03-01T01:39:37;102986.34;;;7.47;100.00
50356;BME280;36264;51.296;-0.602;2023-03-01T01:42:03;102981.16;;;7.45;100.00
50356;BME280;36264;51.296;-0.602;2023-03-01T01:44:29;102982.94;;;7.48;100.00
50356;BME280;36264;51.296;-0.602;2023-03-01T01:47:01;102982.91;;;7.46;100.00
50356;BME280;36264;51.296;-0.602;2023-03-01T01:49:37;102981.22;;;7.48;100.00
50356;BME280;36264;51.296;-0.602;2023-03-01T01:52:20;102975.16;;;7.46;100.00
50356;BME280;36264;51.296;-0.602;2023-03-01T01:55:14;102983.66;;;7.40;100.00
50356;BME280;36264;51.296;-0.602;2023-03-01T01:57:44;102980.19;;;7.38;100.00
50356;BME280;36264;51.296;-0.602;2023-03-01T02:00:14;102969.03;;;7.41;100.00
50356;BME280;36264;51.296;-0.602;2023-03-01T02:02:41;102973.34;;;7.42;100.00
50356;BME280;36264;51.296;-0.602;2023-03-01T02:05:17;102975.94;;;7.42;100.00
50356;BME280;36264;51.296;-0.602;2023-03-01T02:07:46;102970.78;;;7.43;100.00
50356;BME280;36264;51.296;-0.602;2023-03-01T02:10:12;102959.59;;;7.43;100.00
50356;BME280;36264;51.296;-0.602;2023-03-01T02:12:38;102963.03;;;7.43;100.00
50356;BME280;36264;51.296;-0.602;2023-03-01T02:15:05;102963.00;;;7.42;100.00
50356;BME280;36264;51.296;-0.602;2023-03-01T02:17:31;102959.53;;;7.40;100.00
50356;BME280;36264;51.296;-0.602;2023-03-01T02:22:33;102947.41;;;7.37;100.00
50356;BME280;36264;51.296;-0.602;2023-03-01T02:25:22;102944.78;;;7.34;100.00
50356;BME280;36264;51.296;-0.602;2023-03-01T02:30:42;102940.44;;;7.32;100.00
50356;BME280;36264;51.296;-0.602;2023-03-01T02:33:29;102944.75;;;7.31;100.00
50356;BME280;36264;51.296;-0.602;2023-03-01T02:36:00;102932.63;;;7.29;100.00
50356;BME280;36264;51.296;-0.602;2023-03-01T02:38:26;102939.53;;;7.28;100.00
50356;BME280;36264;51.296;-0.602;2023-03-01T02:40:51;102934.34;;;7.28;100.00
50356;BME280;36264;51.296;-0.602;2023-03-01T02:43:19;102931.75;;;7.28;100.00
50356;BME280;36264;51.296;-0.602;2023-03-01T02:45:52;102923.94;;;7.23;100.00
50356;BME280;36264;51.296;-0.602;2023-03-01T02:48:18;102924.66;;;7.18;100.00
50356;BME280;36264;51.296;-0.602;2023-03-01T02:55:50;102913.44;;;7.16;100.00
50356;BME280;36264;51.296;-0.602;2023-03-01T02:58:15;102915.16;;;7.17;100.00
50356;BME280;36264;51.296;-0.602;2023-03-01T03:00:42;102909.16;;;7.18;100.00
50356;BME280;36264;51.296;-0.602;2023-03-01T03:03:16;102904.81;;;7.17;100.00
50356;BME280;36264;51.296;-0.602;2023-03-01T03:05:42;102909.06;;;7.13;100.00
50356;BME280;36264;51.296;-0.602;2023-03-01T03:08:08;102903.88;;;7.12;100.00
50356;BME280;36264;51.296;-0.602;2023-03-01T03:10:39;102908.22;;;7.13;100.00
50356;BME280;36264;51.296;-0.602;2023-03-01T03:13:11;102908.19;;;7.11;100.00
50356;BME280;36264;51.296;-0.602;2023-03-01T03:15:37;102902.06;;;7.06;100.00
50356;BME280;36264;51.296;-0.602;2023-03-01T03:18:06;102895.16;;;7.05;100.00
50356;BME280;36264;51.296;-0.602;2023-03-01T03:20:32;102896.00;;;7.04;100.00
50356;BME280;36264;51.296;-0.602;2023-03-01T03:22:58;102891.66;;;7.01;100.00
50356;BME280;36264;51.296;-0.602;2023-03-01T03:25:24;102890.78;;;7.02;100.00
50356;BME280;36264;51.296;-0.602;2023-03-01T03:27:52;102890.84;;;7.05;100.00
50356;BME280;36264;51.296;-0.602;2023-03-01T03:30:23;102890.00;;;7.06;100.00
50356;BME280;36264;51.296;-0.602;2023-03-01T03:32:49;102896.00;;;7.05;100.00
50356;BME280;36264;51.296;-0.602;2023-03-01T03:35:33;102891.75;;;7.07;100.00
50356;BME280;36264;51.296;-0.602;2023-03-01T03:38:01;102886.66;;;7.11;100.00
50356;BME280;36264;51.296;-0.602;2023-03-01T03:40:37;102894.47;;;7.14;100.00
50356;BME280;36264;51.296;-0.602;2023-03-01T03:43:04;102886.69;;;7.12;100.00
50356;BME280;36264;51.296;-0.602;2023-03-01T03:45:30;102884.13;;;7.14;100.00
50356;BME280;36264;51.296;-0.602;2023-03-01T03:47:58;102876.41;;;7.18;100.00
50356;BME280;36264;51.296;-0.602;2023-03-01T03:50:23;102883.44;;;7.24;100.00
50356;BME280;36264;51.296;-0.602;2023-03-01T03:52:49;102878.38;;;7.30;100.00
50356;BME280;36264;51.296;-0.602;2023-03-01T03:55:14;102878.38;;;7.32;100.00
50356;BME280;36264;51.296;-0.602;2023-03-01T03:57:45;102878.38;;;7.32;100.00
50356;BME280;36264;51.296;-0.602;2023-03-01T04:00:20;102873.16;;;7.29;100.00
50356;BME280;36264;51.296;-0.602;2023-03-01T04:02:47;102867.13;;;7.27;100.00
50356;BME280;36264;51.296;-0.602;2023-03-01T04:05:14;102873.13;;;7.25;100.00
50356;BME280;36264;51.296;-0.602;2023-03-01T04:07:41;102871.38;;;7.24;100.00
50356;BME280;36264;51.296;-0.602;2023-03-01T04:10:10;102867.13;;;7.28;100.00
50356;BME280;36264;51.296;-0.602;2023-03-01T04:12:36;102866.31;;;7.32;100.00
50356;BME280;36264;51.296;-0.602;2023-03-01T04:15:06;102865.47;;;7.32;100.00
50356;BME280;36264;51.296;-0.602;2023-03-01T04:17:45;102862.81;;;7.29;100.00
50356;BME280;36264;51.296;-0.602;2023-03-01T04:20:14;102867.06;;;7.23;100.00
50356;BME280;36264;51.296;-0.602;2023-03-01T04:22:42;102854.91;;;7.19;100.00
50356;BME280;36264;51.296;-0.602;2023-03-01T04:25:08;102858.34;;;7.18;100.00
50356;BME280;36264;51.296;-0.602;2023-03-01T04:27:35;102854.84;;;7.15;100.00
50356;BME280;36264;51.296;-0.602;2023-03-01T04:30:01;102848.84;;;7.16;100.00
50356;BME280;36264;51.296;-0.602;2023-03-01T04:32:27;102850.47;;;7.11;100.00
50356;BME280;36264;51.296;-0.602;2023-03-01T04:34:52;102847.06;;;7.13;100.00
50356;BME280;36264;51.296;-0.602;2023-03-01T04:37:19;102848.84;;;7.16;100.00
50356;BME280;36264;51.296;-0.602;2023-03-01T04:39:44;102848.03;;;7.20;100.00
50356;BME280;36264;51.296;-0.602;2023-03-01T04:42:13;102842.06;;;7.24;100.00
50356;BME280;36264;51.296;-0.602;2023-03-01T04:44:39;102841.19;;;7.22;100.00
50356;BME280;36264;51.296;-0.602;2023-03-01T04:47:04;102835.13;;;7.21;100.00
50356;BME280;36264;51.296;-0.602;2023-03-01T04:49:29;102828.22;;;7.19;100.00
50356;BME280;36264;51.296;-0.602;2023-03-01T04:51:55;102831.56;;;7.15;100.00
50356;BME280;36264;51.296;-0.602;2023-03-01T04:54:23;102828.09;;;7.13;100.00
50356;BME280;36264;51.296;-0.602;2023-03-01T04:56:48;102830.75;;;7.16;100.00
50356;BME280;36264;51.296;-0.602;2023-03-01T04:59:14;102825.53;;;7.14;100.00
50356;BME280;36264;51.296;-0.602;2023-03-01T05:01:39;102841.84;;;7.12;100.00
50356;BME280;36264;51.296;-0.602;2023-03-01T05:04:07;102832.38;;;7.09;100.00
50356;BME280;36264;51.296;-0.602;2023-03-01T05:06:38;102837.41;;;7.03;100.00
50356;BME280;36264;51.296;-0.602;2023-03-01T05:09:03;102836.47;;;6.99;100.00
50356;BME280;36264;51.296;-0.602;2023-03-01T05:11:28;102837.41;;;7.01;100.00
50356;BME280;36264;51.296;-0.602;2023-03-01T05:13:58;102840.84;;;7.02;100.00
50356;BME280;36264;51.296;-0.602;2023-03-01T05:16:24;102833.88;;;6.99;100.00
50356;BME280;36264;51.296;-0.602;2023-03-01T05:18:49;102833.84;;;6.96;100.00
50356;BME280;36264;51.296;-0.602;2023-03-01T05:21:16;102824.41;;;6.98;100.00
50356;BME280;36264;51.296;-0.602;2023-03-01T05:23:42;102826.19;;;7.02;100.00
50356;BME280;36264;51.296;-0.602;2023-03-01T05:26:08;102829.69;;;7.04;100.00
50356;BME280;36264;51.296;-0.602;2023-03-01T05:28:35;102830.50;;;7.02;100.00
50356;BME280;36264;51.296;-0.602;2023-03-01T05:31:00;102829.66;;;7.03;100.00
50356;BME280;36264;51.296;-0.602;2023-03-01T05:33:26;102824.47;;;7.01;100.00
50356;BME280;36264;51.296;-0.602;2023-03-01T05:35:51;102822.72;;;7.00;100.00
50356;BME280;36264;51.296;-0.602;2023-03-01T05:38:19;102818.44;;;7.02;100.00
50356;BME280;36264;51.296;-0.602;2023-03-01T05:40:46;102823.59;;;7.02;100.00
50356;BME280;36264;51.296;-0.602;2023-03-01T05:43:13;102817.53;;;6.99;100.00
50356;BME280;36264;51.296;-0.602;2023-03-01T05:45:40;102825.22;;;6.96;100.00
50356;BME280;36264;51.296;-0.602;2023-03-01T05:48:06;102821.84;;;6.98;100.00
50356;BME280;36264;51.296;-0.602;2023-03-01T05:50:34;102821.94;;;7.04;100.00
50356;BME280;36264;51.296;-0.602;2023-03-01T05:53:05;102819.28;;;7.00;100.00
50356;BME280;36264;51.296;-0.602;2023-03-01T05:55:32;102822.75;;;7.02;100.00
50356;BME280;36264;51.296;-0.602;2023-03-01T05:57:59;102817.59;;;7.03;100.00
50356;BME280;36264;51.296;-0.602;2023-03-01T06:00:25;102816.78;;;7.04;100.00
50356;BME280;36264;51.296;-0.602;2023-03-01T06:02:53;102816.84;;;7.09;100.00
50356;BME280;36264;51.296;-0.602;2023-03-01T06:05:19;102816.03;;;7.13;100.00
50356;BME280;36264;51.296;-0.602;2023-03-01T06:07:45;102817.81;;;7.16;100.00
50356;BME280;36264;51.296;-0.602;2023-03-01T06:10:11;102816.97;;;7.17;100.00
50356;BME280;36264;51.296;-0.602;2023-03-01T06:12:38;102814.38;;;7.17;100.00
50356;BME280;36264;51.296;-0.602;2023-03-01T06:15:05;102817.84;;;7.17;100.00
50356;BME280;36264;51.296;-0.602;2023-03-01T06:17:32;102807.47;;;7.16;100.00
50356;BME280;36264;51.296;-0.602;2023-03-01T06:20:00;102811.84;;;7.20;100.00
50356;BME280;36264;51.296;-0.602;2023-03-01T06:22:26;102808.38;;;7.18;100.00
50356;BME280;36264;51.296;-0.602;2023-03-01T06:24:52;102810.03;;;7.14;100.00
50356;BME280;36264;51.296;-0.602;2023-03-01T06:27:17;102809.16;;;7.12;100.00
50356;BME280;36264;51.296;-0.602;2023-03-01T06:29:42;102812.56;;;7.11;100.00
50356;BME280;36264;51.296;-0.602;2023-03-01T06:32:08;102817.72;;;7.10;100.00
50356;BME280;36264;51.296;-0.602;2023-03-01T06:34:33;102811.69;;;7.09;100.00
50356;BME280;36264;51.296;-0.602;2023-03-01T06:36:59;102817.72;;;7.10;100.00
50356;BME280;36264;51.296;-0.602;2023-03-01T06:39:24;102816.00;;;7.12;100.00
50356;BME280;36264;51.296;-0.602;2023-03-01T06:41:50;102818.66;;;7.15;100.00
50356;BME280;36264;51.296;-0.602;2023-03-01T06:44:15;102819.53;;;7.14;100.00
50356;BME280;36264;51.296;-0.602;2023-03-01T06:46:40;102828.16;;;7.16;100.00
50356;BME280;36264;51.296;-0.602;2023-03-01T06:49:06;102828.94;;;7.12;100.00
50356;BME280;36264;51.296;-0.602;2023-03-01T06:51:35;102834.13;;;7.13;100.00
50356;BME280;36264;51.296;-0.602;2023-03-01T06:54:02;102832.47;;;7.17;100.00
50356;BME280;36264;51.296;-0.602;2023-03-01T06:56:27;102830.88;;;7.23;100.00
50356;BME280;36264;51.296;-0.602;2023-03-01T06:58:53;102830.94;;;7.27;100.00
50356;BME280;36264;51.296;-0.602;2023-03-01T07:01:18;102833.53;;;7.28;100.00
50356;BME280;36264;51.296;-0.602;2023-03-01T07:03:43;102835.19;;;7.26;100.00
50356;BME280;36264;51.296;-0.602;2023-03-01T07:06:09;102838.69;;;7.28;100.00
50356;BME280;36264;51.296;-0.602;2023-03-01T07:08:35;102842.97;;;7.26;100.00
50356;BME280;36264;51.296;-0.602;2023-03-01T07:11:00;102840.31;;;7.23;100.00
50356;BME280;36264;51.296;-0.602;2023-03-01T07:13:27;102845.50;;;7.24;100.00
50356;BME280;36264;51.296;-0.602;2023-03-01T07:15:53;102844.63;;;7.22;100.00
50356;BME280;36264;51.296;-0.602;2023-03-01T07:18:18;102843.84;;;7.27;100.00
50356;BME280;36264;51.296;-0.602;2023-03-01T07:20:43;102843.94;;;7.33;100.00
50356;BME280;36264;51.296;-0.602;2023-03-01T07:23:09;102850.88;;;7.35;100.00
50356;BME280;36264;51.296;-0.602;2023-03-01T07:25:35;102857.75;;;7.35;100.00
50356;BME280;36264;51.296;-0.602;2023-03-01T07:28:00;102853.47;;;7.37;100.00
50356;BME280;36264;51.296;-0.602;2023-03-01T07:30:25;102837.13;;;7.38;100.00
50356;BME280;36264;51.296;-0.602;2023-03-01T07:32:54;102844.91;;;7.39;100.00
50356;BME280;36264;51.296;-0.602;2023-03-01T07:35:20;102845.75;;;7.38;100.00
50356;BME280;36264;51.296;-0.602;2023-03-01T07:37:46;102838.91;;;7.42;100.00
50356;BME280;36264;51.296;-0.602;2023-03-01T07:40:12;102838.97;;;7.47;100.00
50356;BME280;36264;51.296;-0.602;2023-03-01T07:42:37;102839.88;;;7.49;100.00
50356;BME280;36264;51.296;-0.602;2023-03-01T07:45:04;102831.28;;;7.51;100.00
50356;BME280;36264;51.296;-0.602;2023-03-01T07:47:30;102825.34;;;7.57;100.00
50356;BME280;36264;51.296;-0.602;2023-03-01T07:49:55;102831.38;;;7.56;100.00
50356;BME280;36264;51.296;-0.602;2023-03-01T07:52:20;102829.63;;;7.56;100.00
50356;BME280;36264;51.296;-0.602;2023-03-01T07:54:46;102833.16;;;7.60;100.00
50356;BME280;36264;51.296;-0.602;2023-03-01T07:57:11;102824.59;;;7.64;100.00
50356;BME280;36264;51.296;-0.602;2023-03-01T07:59:37;102822.91;;;7.66;100.00
50356;BME280;36264;51.296;-0.602;2023-03-01T08:02:02;102830.66;;;7.66;100.00
50356;BME280;36264;51.296;-0.602;2023-03-01T08:04:27;102832.28;;;7.61;100.00
50356;BME280;36264;51.296;-0.602;2023-03-01T08:06:54;102828.84;;;7.60;100.00
50356;BME280;36264;51.296;-0.602;2023-03-01T08:09:20;102828.84;;;7.60;100.00
50356;BME280;36264;51.296;-0.602;2023-03-01T08:11:45;102824.50;;;7.58;100.00
50356;BME280;36264;51.296;-0.602;2023-03-01T08:14:11;102827.91;;;7.55;100.00
50356;BME280;36264;51.296;-0.602;2023-03-01T08:16:37;102823.59;;;7.56;100.00
50356;BME280;36264;51.296;-0.602;2023-03-01T08:19:06;102827.06;;;7.58;100.00
50356;BME280;36264;51.296;-0.602;2023-03-01T08:21:32;102828.88;;;7.62;100.00
50356;BME280;36264;51.296;-0.602;2023-03-01T08:24:00;102832.28;;;7.61;100.00
50356;BME280;36264;51.296;-0.602;2023-03-01T08:26:26;102832.31;;;7.62;100.00
50356;BME280;36264;51.296;-0.602;2023-03-01T08:28:51;102829.78;;;7.66;100.00
50356;BME280;36264;51.296;-0.602;2023-03-01T08:31:21;102827.25;;;7.70;100.00
50356;BME280;36264;51.296;-0.602;2023-03-01T08:33:48;102832.44;;;7.70;100.00
50356;BME280;36264;51.296;-0.602;2023-03-01T08:36:16;102829.81;;;7.67;100.00
50356;BME280;36264;51.296;-0.602;2023-03-01T08:38:42;102835.91;;;7.71;100.00
50356;BME280;36264;51.296;-0.602;2023-03-01T08:41:07;102828.16;;;7.74;100.00
50356;BME280;36264;51.296;-0.602;2023-03-01T08:43:33;102838.63;;;7.82;100.00
50356;BME280;36264;51.296;-0.602;2023-03-01T08:45:58;102831.81;;;7.85;100.00
50356;BME280;36264;51.296;-0.602;2023-03-01T08:48:24;102829.19;;;7.84;100.00
50356;BME280;36264;51.296;-0.602;2023-03-01T08:50:49;102826.66;;;7.87;100.00
50356;BME280;36264;51.296;-0.602;2023-03-01T08:53:15;102832.75;;;7.92;100.00
50356;BME280;36264;51.296;-0.602;2023-03-01T08:55:40;102822.44;;;7.95;100.00
50356;BME280;36264;51.296;-0.602;2023-03-01T08:58:05;102818.13;;;7.95;100.00
50356;BME280;36264;51.296;-0.602;2023-03-01T09:00:31;102816.41;;;7.97;100.00
50356;BME280;36264;51.296;-0.602;2023-03-01T09:02:59;102814.78;;;8.03;100.00
50356;BME280;36264;51.296;-0.602;2023-03-01T09:05:25;102806.19;;;8.07;100.00
50356;BME280;36264;51.296;-0.602;2023-03-01T09:07:50;102806.19;;;8.07;100.00
50356;BME280;36264;51.296;-0.602;2023-03-01T09:10:15;102799.22;;;8.01;100.00
50356;BME280;36264;51.296;-0.602;2023-03-01T09:12:41;102806.03;;;7.96;100.00
50356;BME280;36264;51.296;-0.602;2023-03-01T09:15:07;102806.09;;;8.01;100.00
50356;BME280;36264;51.296;-0.602;2023-03-01T09:17:33;102794.91;;;8.02;100.00
50356;BME280;36264;51.296;-0.602;2023-03-01T09:19:58;102801.00;;;8.05;100.00
50356;BME280;36264;51.296;-0.602;2023-03-01T09:22:24;102792.34;;;8.03;100.00
50356;BME280;36264;51.296;-0.602;2023-03-01T09:24:50;102786.31;;;8.04;100.00
50356;BME280;36264;51.296;-0.602;2023-03-01T09:27:15;102783.78;;;8.10;100.00
50356;BME280;36264;51.296;-0.602;2023-03-01T09:29:44;102777.91;;;8.22;100.00
50356;BME280;36264;51.296;-0.602;2023-03-01T09:32:09;102767.63;;;8.28;100.00
50356;BME280;36264;51.296;-0.602;2023-03-01T09:34:35;102773.81;;;8.43;100.00
50356;BME280;36264;51.296;-0.602;2023-03-01T09:37:20;102767.00;;;8.51;100.00
50356;BME280;36264;51.296;-0.602;2023-03-01T09:39:46;102774.03;;;8.61;100.00
50356;BME280;36264;51.296;-0.602;2023-03-01T09:42:12;102759.34;;;8.62;100.00
50356;BME280;36264;51.296;-0.602;2023-03-01T09:45:18;102757.63;;;8.64;100.00
50356;BME280;36264;51.296;-0.602;2023-03-01T09:47:45;102756.81;;;8.68;100.00
50356;BME280;36264;51.296;-0.602;2023-03-01T09:50:19;102752.63;;;8.81;100.00
50356;BME280;36264;51.296;-0.602;2023-03-01T09:53:07;102753.53;;;8.89;100.00
50356;BME280;36264;51.296;-0.602;2023-03-01T09:55:49;102744.88;;;8.84;100.00
50356;BME280;36264;51.296;-0.602;2023-03-01T09:58:33;102752.56;;;8.76;100.00
50356;BME280;36264;51.296;-0.602;2023-03-01T10:06:51;102737.09;;;8.84;100.00
50356;BME280;36264;51.296;-0.602;2023-03-01T10:09:20;102743.09;;;8.81;100.00
50356;BME280;36264;51.296;-0.602;2023-03-01T10:11:53;102750.03;;;8.81;100.00
50356;BME280;36264;51.296;-0.602;2023-03-01T10:14:36;102745.66;;;8.78;100.00
50356;BME280;36264;51.296;-0.602;2023-03-01T10:17:10;102743.09;;;8.80;100.00
50356;BME280;36264;51.296;-0.602;2023-03-01T10:19:45;102737.06;;;8.81;100.00
50356;BME280;36264;51.296;-0.602;2023-03-01T10:24:36;102739.69;;;8.85;100.00
50356;BME280;36264;51.296;-0.602;2023-03-01T10:27:23;102735.41;;;8.89;100.00
50356;BME280;36264;51.296;-0.602;2023-03-01T10:32:31;102737.09;;;8.85;100.00
50356;BME280;36264;51.296;-0.602;2023-03-01T10:34:56;102731.06;;;8.88;100.00
50356;BME280;36264;51.296;-0.602;2023-03-01T10:37:22;102725.94;;;8.94;100.00
50356;BME280;36264;51.296;-0.602;2023-03-01T10:40:08;102732.91;;;9.00;100.00
50356;BME280;36264;51.296;-0.602;2023-03-01T10:42:39;102729.47;;;9.01;100.00
50356;BME280;36264;51.296;-0.602;2023-03-01T10:47:41;102721.69;;;9.04;100.00
50356;BME280;36264;51.296;-0.602;2023-03-01T10:50:18;102728.66;;;9.11;100.00
50356;BME280;36264;51.296;-0.602;2023-03-01T10:52:56;102717.47;;;9.18;100.00
50356;BME280;36264;51.296;-0.602;2023-03-01T10:55:33;102714.91;;;9.28;100.00
50356;BME280;36264;51.296;-0.602;2023-03-01T10:58:08;102701.16;;;9.38;100.00
50356;BME280;36264;51.296;-0.602;2023-03-01T11:00:54;102693.41;;;9.42;100.00
50356;BME280;36264;51.296;-0.602;2023-03-01T11:03:37;102695.13;;;9.43;100.00
50356;BME280;36264;51.296;-0.602;2023-03-01T11:08:43;102698.59;;;9.42;100.00
50356;BME280;36264;51.296;-0.602;2023-03-01T11:13:35;102687.34;;;9.43;100.00
50356;BME280;36264;51.296;-0.602;2023-03-01T11:16:01;102686.47;;;9.43;100.00
50356;BME280;36264;51.296;-0.602;2023-03-01T11:18:29;102683.03;;;9.44;100.00
50356;BME280;36264;51.296;-0.602;2023-03-01T11:20:55;102679.59;;;9.51;100.00
50356;BME280;36264;51.296;-0.602;2023-03-01T11:23:22;102681.31;;;9.49;100.00
50356;BME280;36264;51.296;-0.602;2023-03-01T11:25:55;102673.56;;;9.52;100.00
50356;BME280;36264;51.296;-0.602;2023-03-01T11:28:22;102676.19;;;9.60;100.00
50356;BME280;36264;51.296;-0.602;2023-03-01T11:30:53;102667.53;;;9.66;100.00
50356;BME280;36264;51.296;-0.602;2023-03-01T11:33:33;102677.09;;;9.73;100.00
50356;BME280;36264;51.296;-0.602;2023-03-01T11:38:34;102656.38;;;9.81;100.00
50356;BME280;36264;51.296;-0.602;2023-03-01T11:41:06;102664.97;;;9.72;100.00
50356;BME280;36264;51.296;-0.602;2023-03-01T11:44:01;102654.59;;;9.72;100.00
50356;BME280;36264;51.296;-0.602;2023-03-01T11:54:42;102640.75;;;9.70;100.00
50356;BME280;36264;51.296;-0.602;2023-03-01T11:57:47;102639.91;;;9.80;100.00
50356;BME280;36264;51.296;-0.602;2023-03-01T12:23:03;102607.06;;;9.82;100.00
50356;BME280;36264;51.296;-0.602;2023-03-01T12:25:41;102604.47;;;9.84;100.00
50356;BME280;36264;51.296;-0.602;2023-03-01T12:30:58;102586.25;;;9.60;100.00
50356;BME280;36264;51.296;-0.602;2023-03-01T12:38:49;102570.66;;;9.56;100.00
50356;BME280;36264;51.296;-0.602;2023-03-01T12:41:42;102569.81;;;9.54;100.00
50356;BME280;36264;51.296;-0.602;2023-03-01T12:49:44;102562.88;;;9.56;100.00
50356;BME280;36264;51.296;-0.602;2023-03-01T12:54:44;102548.19;;;9.63;100.00
50356;BME280;36264;51.296;-0.602;2023-03-01T12:57:46;102538.72;;;9.74;100.00
50356;BME280;36264;51.296;-0.602;2023-03-01T13:08:39;102523.13;;;9.95;100.00
50356;BME280;36264;51.296;-0.602;2023-03-01T13:11:20;102532.66;;;9.92;100.00
50356;BME280;36264;51.296;-0.602;2023-03-01T13:13:46;102526.59;;;9.82;100.00
50356;BME280;36264;51.296;-0.602;2023-03-01T13:19:21;102524.00;;;9.71;100.00
50356;BME280;36264;51.296;-0.602;2023-03-01T13:21:48;102510.16;;;9.66;100.00
50356;BME280;36264;51.296;-0.602;2023-03-01T13:29:50;102507.56;;;9.83;100.00
50356;BME280;36264;51.296;-0.602;2023-03-01T13:32:35;102503.25;;;9.90;100.00
50356;BME280;36264;51.296;-0.602;2023-03-01T13:37:39;102500.66;;;9.88;100.00
50356;BME280;36264;51.296;-0.602;2023-03-01T13:42:52;102503.25;;;9.76;100.00
50356;BME280;36264;51.296;-0.602;2023-03-01T13:45:35;102498.91;;;9.75;100.00
50356;BME280;36264;51.296;-0.602;2023-03-01T13:48:09;102497.19;;;9.72;100.00
50356;BME280;36264;51.296;-0.602;2023-03-01T13:50:46;102502.38;;;9.72;100.00
50356;BME280;36264;51.296;-0.602;2023-03-01T13:53:17;102493.72;;;9.75;100.00
50356;BME280;36264;51.296;-0.602;2023-03-01T13:55:56;102489.41;;;9.74;100.00
50356;BME280;36264;51.296;-0.602;2023-03-01T14:01:04;102481.63;;;9.77;100.00
50356;BME280;36264;51.296;-0.602;2023-03-01T14:03:32;102479.00;;;9.78;100.00
50356;BME280;36264;51.296;-0.602;2023-03-01T14:06:06;102472.09;;;9.81;100.00
50356;BME280;36264;51.296;-0.602;2023-03-01T14:08:35;102465.19;;;9.76;100.00
50356;BME280;36264;51.296;-0.602;2023-03-01T14:19:31;102463.44;;;9.58;100.00
50356;BME280;36264;51.296;-0.602;2023-03-01T14:24:40;102453.06;;;9.51;100.00
50356;BME280;36264;51.296;-0.602;2023-03-01T14:27:11;102451.34;;;9.54;100.00
50356;BME280;36264;51.296;-0.602;2023-03-01T14:29:39;102447.88;;;9.57;100.00
50356;BME280;36264;51.296;-0.602;2023-03-01T14:32:22;102435.78;;;9.60;100.00
50356;BME280;36264;51.296;-0.602;2023-03-01T14:34:50;102428.84;;;9.59;100.00
50356;BME280;36264;51.296;-0.602;2023-03-01T14:39:52;102420.22;;;9.62;100.00
50356;BME280;36264;51.296;-0.602;2023-03-01T14:42:19;102427.13;;;9.66;100.00
50356;BME280;36264;51.296;-0.602;2023-03-01T14:44:48;102417.63;;;9.67;100.00
50356;BME280;36264;51.296;-0.602;2023-03-01T14:47:16;102419.34;;;9.69;100.00
50356;BME280;36264;51.296;-0.602;2023-03-01T14:49:44;102419.34;;;9.71;100.00